Time;durP1;ratioP1;P1;durP2;ratioP2;P2;SDS_P1;SDS_P2;PMS_P1;PMS_P2;Temp;Humidity;BMP_temperature;BMP_pressure;BME280_temperature;BME280_humidity;BME280_pressure;Samples;Min_cycle;Max_cycle;Signal;HPM_P1;HPM_P2
2021/12/19 00:18:38;;;;;;;240.52;58.35;;;0.40;99.90;;;;;;5511145;22;16816304;-86
2021/12/19 00:22:26;;;;;;;300.45;62.05;;;0.40;99.90;;;;;;6180231;23;20029;-87
2021/12/19 00:26:51;;;;;;;;;;;;;;;;;;;;;
2021/12/19 00:30:35;;;;;;;;;;;;;;;;;;;;;
2021/12/19 00:50:16;;;;;;;439.98;55.55;;;0.40;99.90;;;;;;5965633;24;20052;-85
2021/12/19 00:57:43;;;;;;;386.50;57.17;;;0.30;99.90;;;;;;5907514;24;20030;-86
2021/12/19 01:01:09;;;;;;;355.67;56.33;;;0.30;99.90;;;;;;5907881;24;20131;-87
2021/12/19 01:09:05;;;;;;;;;;;;;;;;;;;;;
2021/12/19 01:13:02;;;;;;;884.83;77.60;;;0.30;99.90;;;;;;5954514;24;20033;-86
2021/12/19 01:16:49;;;;;;;939.85;83.22;;;0.30;99.90;;;;;;5896940;24;20020;-89
2021/12/19 01:29:27;;;;;;;692.77;65.97;;;0.10;99.90;;;;;;5873797;24;20319;-88
2021/12/19 01:52:01;;;;;;;;;;;;;;;;;;;;;
2021/12/19 02:07:13;;;;;;;573.72;54.05;;;-0.10;99.90;;;;;;6234776;22;20451;-87
2021/12/19 02:10:18;;;;;;;343.10;44.08;;;-0.10;99.90;;;;;;6255138;23;20028;-88
2021/12/19 02:13:13;;;;;;;393.98;48.70;;;-0.20;99.90;;;;;;6254165;23;20024;-88
2021/12/19 02:16:06;;;;;;;387.58;49.97;;;-0.20;99.90;;;;;;6252957;23;20047;-87
2021/12/19 02:18:53;;;;;;;618.00;60.22;;;-0.20;99.90;;;;;;6213900;23;20122;-88
2021/12/19 02:21:49;;;;;;;422.05;53.58;;;-0.20;99.90;;;;;;6255435;22;20081;-87
2021/12/19 02:24:43;;;;;;;459.58;56.88;;;-0.30;99.90;;;;;;6255431;23;20058;-87
2021/12/19 02:27:38;;;;;;;401.10;54.28;;;-0.20;99.90;;;;;;6238100;23;20034;-89
2021/12/19 02:30:26;;;;;;;599.08;63.92;;;-0.20;99.90;;;;;;6253456;23;20043;-88
2021/12/19 02:33:20;;;;;;;350.45;48.20;;;-0.20;99.90;;;;;;6257068;23;20111;-89
2021/12/19 02:48:56;;;;;;;518.58;58.10;;;0.00;99.90;;;;;;6173284;23;20049;-87
2021/12/19 02:51:52;;;;;;;470.73;54.60;;;0.00;99.90;;;;;;6248067;23;20077;-88
2021/12/19 02:54:46;;;;;;;434.50;50.78;;;-0.20;99.90;;;;;;6247625;23;20112;-86
2021/12/19 02:57:38;;;;;;;367.88;51.75;;;-0.20;99.90;;;;;;6253440;22;20024;-88
2021/12/19 03:00:36;;;;;;;342.98;46.80;;;-0.30;99.90;;;;;;6246952;23;20115;-89
2021/12/19 03:03:27;;;;;;;304.42;42.72;;;-0.30;99.90;;;;;;6247798;23;20126;-87
2021/12/19 03:06:18;;;;;;;321.58;43.92;;;-0.20;99.90;;;;;;6250314;22;20099;-87
2021/12/19 03:09:15;;;;;;;408.20;46.97;;;-0.20;99.90;;;;;;6246684;23;20131;-89
2021/12/19 03:18:48;;;;;;;;;;;;;;;;;;;;;
2021/12/19 03:21:49;;;;;;;359.23;43.42;;;-0.30;99.90;;;;;;6248984;23;20020;-85
2021/12/19 03:25:00;;;;;;;276.27;40.70;;;-0.40;99.90;;;;;;6247015;23;20386;-88
2021/12/19 03:31:04;;;;;;;313.05;42.75;;;-0.30;99.90;;;;;;6250069;23;20095;-88
2021/12/19 03:34:15;;;;;;;311.52;45.33;;;-0.30;99.90;;;;;;6231155;23;20022;-87
2021/12/19 03:37:28;;;;;;;415.42;51.30;;;-0.30;99.90;;;;;;6229883;23;20020;-88
2021/12/19 03:40:34;;;;;;;;;;;;;;;;;;;;;
2021/12/19 03:43:37;;;;;;;374.70;45.90;;;-0.20;99.90;;;;;;6249365;23;20435;-87
2021/12/19 03:47:00;;;;;;;338.45;45.65;;;-0.20;99.90;;;;;;6232829;23;20028;-89
2021/12/19 03:49:54;;;;;;;429.50;51.65;;;-0.20;99.90;;;;;;6252429;23;20093;-88
2021/12/19 03:53:25;;;;;;;;;;;;;;;;;;;;;
2021/12/19 03:56:38;;;;;;;269.02;38.90;;;-0.20;99.90;;;;;;6158206;23;20032;-87
2021/12/19 03:59:46;;;;;;;;;;;;;;;;;;;;;
2021/12/19 04:03:46;;;;;;;398.35;47.75;;;-0.20;99.90;;;;;;6011338;23;20032;-85
2021/12/19 04:20:23;;;;;;;828.08;67.57;;;-0.40;99.90;;;;;;5909304;24;20021;-86
2021/12/19 04:24:39;;;;;;;;;;;;;;;;;;;;;
2021/12/19 04:31:36;;;;;;;950.25;75.53;;;-0.50;99.90;;;;;;5867034;24;19920;-86
2021/12/19 04:34:24;;;;;;;1032.93;81.93;;;-0.60;99.90;;;;;;5870351;24;20022;-85
2021/12/19 04:51:40;;;;;;;454.88;47.60;;;-0.50;99.90;;;;;;6031941;23;20016;-88
2021/12/19 04:58:46;;;;;;;383.15;46.03;;;-0.50;99.90;;;;;;6117984;23;20011;-86
2021/12/19 05:17:15;;;;;;;;;;;;;;;;;;;;;
2021/12/19 05:20:49;;;;;;;;;;;;;;;;;;;;;
2021/12/19 05:27:53;;;;;;;434.70;41.85;;;-0.50;99.90;;;;;;6268401;22;20007;-86
2021/12/19 05:31:26;;;;;;;;;;;;;;;;;;;;;
2021/12/19 05:34:28;;;;;;;407.83;39.65;;;-0.40;99.90;;;;;;6169750;23;20036;-88
2021/12/19 05:45:52;;;;;;;;;;;;;;;;;;;;;
2021/12/19 05:49:52;;;;;;;;;;;;;;;;;;;;;
2021/12/19 05:57:21;;;;;;;613.53;50.65;;;-0.60;99.90;;;;;;5925428;24;20077;-87
2021/12/19 06:00:29;;;;;;;399.25;38.92;;;-0.60;99.90;;;;;;5929668;24;20040;-87
2021/12/19 06:07:27;;;;;;;373.00;39.60;;;-0.70;99.90;;;;;;5986487;23;20107;-86
2021/12/19 06:11:31;;;;;;;;;;;;;;;;;;;;;
2021/12/19 06:18:51;;;;;;;;;;;;;;;;;;;;;
2021/12/19 06:22:37;;;;;;;;;;;;;;;;;;;;;
2021/12/19 06:30:12;;;;;;;414.15;39.03;;;-0.70;99.90;;;;;;6094086;23;20041;-89
2021/12/19 06:34:21;;;;;;;357.73;35.90;;;-0.70;99.90;;;;;;6036855;23;20026;-88
2021/12/19 06:38:02;;;;;;;;;;;;;;;;;;;;;
2021/12/19 06:41:56;;;;;;;;;;;;;;;;;;;;;
2021/12/19 06:45:58;;;;;;;;;;;;;;;;;;;;;
2021/12/19 06:53:42;;;;;;;557.30;47.58;;;-0.60;99.90;;;;;;5953725;24;20183;-88
2021/12/19 06:57:12;;;;;;;;;;;;;;;;;;;;;
2021/12/19 07:01:05;;;;;;;273.80;31.52;;;-0.80;99.90;;;;;;5964790;24;20107;-88
2021/12/19 07:04:13;;;;;;;253.60;33.55;;;-0.80;99.90;;;;;;5974530;23;20069;-84
2021/12/19 07:26:32;;;;;;;192.43;25.63;;;-0.60;99.90;;;;;;6255305;23;20334;-87
2021/12/19 07:33:01;;;;;;;245.43;28.98;;;-0.70;99.90;;;;;;6138144;23;20021;-89
2021/12/19 08:34:16;;;;;;;383.75;39.63;;;-0.60;99.90;;;;;;6280382;22;19915;-87
2021/12/19 09:01:57;;;;;;;319.40;33.15;;;-0.60;99.90;;;;;;6200795;22;19915;-87
2021/12/19 09:04:54;;;;;;;500.55;44.25;;;-0.60;99.90;;;;;;6226986;23;20024;-87
2021/12/19 09:07:47;;;;;;;686.63;50.17;;;-0.60;99.90;;;;;;6224399;23;20392;-85
2021/12/19 09:10:35;;;;;;;248.82;30.35;;;-0.60;99.90;;;;;;6231324;23;20025;-87
2021/12/19 09:13:23;;;;;;;113.03;25.45;;;-0.60;99.90;;;;;;6230972;23;20024;-86
2021/12/19 09:16:26;;;;;;;218.68;26.83;;;-0.60;99.90;;;;;;6234091;23;20013;-86
2021/12/19 09:19:31;;;;;;;135.35;21.90;;;-0.40;99.90;;;;;;6198141;23;20099;-87
2021/12/19 09:22:19;;;;;;;112.18;19.83;;;-0.50;99.90;;;;;;6230209;23;20036;-87
2021/12/19 09:25:38;;;;;;;152.82;21.08;;;-0.50;99.90;;;;;;6217053;23;20024;-86
2021/12/19 09:28:28;;;;;;;187.15;24.73;;;-0.50;99.90;;;;;;6232281;23;20036;-85
2021/12/19 09:31:17;;;;;;;107.68;17.77;;;-0.50;99.90;;;;;;6187821;23;20027;-86
2021/12/19 09:34:10;;;;;;;88.45;18.80;;;-0.50;99.90;;;;;;6217035;23;20017;-86
2021/12/19 09:37:00;;;;;;;88.20;19.75;;;-0.40;99.90;;;;;;6216818;23;20036;-87
2021/12/19 09:39:51;;;;;;;110.50;19.52;;;-0.20;99.90;;;;;;6238371;23;20076;-88
2021/12/19 09:42:47;;;;;;;98.93;19.48;;;-0.20;99.90;;;;;;6237987;23;20042;-88
2021/12/19 09:45:39;;;;;;;123.85;19.52;;;-0.20;99.90;;;;;;6218613;23;20092;-90
2021/12/19 09:48:27;;;;;;;116.55;19.98;;;-0.20;99.90;;;;;;6218298;23;20040;-88
2021/12/19 09:51:21;;;;;;;76.00;18.27;;;-0.20;99.90;;;;;;6219286;23;20151;-88
2021/12/19 09:54:14;;;;;;;91.15;21.85;;;-0.10;99.90;;;;;;6235549;23;20039;-88
2021/12/19 09:57:04;;;;;;;124.95;20.10;;;0.00;99.90;;;;;;6240425;23;20028;-87
2021/12/19 09:59:55;;;;;;;113.38;19.42;;;0.10;99.90;;;;;;6240143;23;20023;-87
2021/12/19 10:02:45;;;;;;;89.57;18.05;;;0.10;99.90;;;;;;6220163;23;20035;-88
2021/12/19 10:05:32;;;;;;;78.00;18.08;;;0.10;99.90;;;;;;6237388;23;20062;-87
2021/12/19 10:08:23;;;;;;;127.18;20.85;;;0.10;99.90;;;;;;6235574;23;20277;-88
2021/12/19 10:11:46;;;;;;;99.20;18.73;;;0.20;99.90;;;;;;6237322;23;20029;-86
2021/12/19 10:14:41;;;;;;;99.57;20.05;;;0.10;99.90;;;;;;6233211;23;20028;-89
2021/12/19 10:17:32;;;;;;;55.90;17.20;;;0.10;99.90;;;;;;6231650;23;20035;-87
2021/12/19 10:20:25;;;;;;;41.13;12.43;;;0.20;99.90;;;;;;6231229;23;20035;-86
2021/12/19 10:23:28;;;;;;;52.67;13.98;;;0.30;99.90;;;;;;6211355;23;20079;-89
2021/12/19 10:26:17;;;;;;;38.78;10.95;;;0.30;99.90;;;;;;6231166;23;20179;-88
2021/12/19 10:29:10;;;;;;;41.45;11.90;;;0.40;99.90;;;;;;6226275;23;20028;-89
2021/12/19 10:32:14;;;;;;;56.88;10.80;;;0.50;99.90;;;;;;6204557;23;20021;-88
2021/12/19 10:35:47;;;;;;;70.75;14.77;;;0.50;99.90;;;;;;6202441;23;20025;-88
2021/12/19 10:38:48;;;;;;;62.45;14.38;;;0.50;99.90;;;;;;6219583;23;20040;-87
2021/12/19 10:41:41;;;;;;;42.72;10.98;;;0.40;99.90;;;;;;6223979;23;20451;-89
2021/12/19 10:47:45;;;;;;;56.72;14.55;;;0.30;99.90;;;;;;6228267;23;20028;-86
2021/12/19 10:51:16;;;;;;;56.85;15.10;;;0.20;99.90;;;;;;6227631;23;20060;-86
2021/12/19 10:54:29;;;;;;;62.47;14.70;;;0.20;99.90;;;;;;6230061;23;20055;-87
2021/12/19 10:57:42;;;;;;;66.90;15.43;;;0.30;99.90;;;;;;6207609;23;20034;-87
2021/12/19 11:01:03;;;;;;;57.03;13.88;;;0.40;99.90;;;;;;6218511;23;20107;-89
2021/12/19 11:04:19;;;;;;;75.05;16.15;;;0.40;99.90;;;;;;6220690;23;20048;-90
2021/12/19 11:08:05;;;;;;;56.78;10.73;;;0.50;99.90;;;;;;6219380;23;20091;-90
2021/12/19 11:11:28;;;;;;;145.13;13.77;;;0.60;99.90;;;;;;6216416;23;20027;-88
2021/12/19 11:14:23;;;;;;;91.00;13.27;;;0.50;99.90;;;;;;6221143;23;20099;-88
2021/12/19 11:17:18;;;;;;;60.15;11.45;;;0.40;99.90;;;;;;6222280;23;20035;-84
2021/12/19 11:20:10;;;;;;;50.70;10.80;;;0.40;99.90;;;;;;6219955;23;20024;-86
2021/12/19 11:22:57;;;;;;;43.23;11.07;;;0.50;99.90;;;;;;6222726;23;20032;-85
2021/12/19 11:25:46;;;;;;;52.17;10.02;;;0.50;99.90;;;;;;6218565;23;20034;-88
2021/12/19 11:28:49;;;;;;;95.20;10.52;;;0.40;99.90;;;;;;6216147;23;20024;-86
2021/12/19 11:31:57;;;;;;;89.38;11.07;;;0.50;99.90;;;;;;6218067;23;20039;-86
2021/12/19 11:35:15;;;;;;;109.40;12.77;;;0.50;99.90;;;;;;6217176;23;20113;-90
2021/12/19 11:38:36;;;;;;;45.20;10.93;;;0.50;99.90;;;;;;6163701;23;20044;-86
2021/12/19 11:42:08;;;;;;;63.90;9.73;;;0.50;99.90;;;;;;6154490;23;20045;-87
2021/12/19 11:46:09;;;;;;;75.15;11.07;;;0.50;99.90;;;;;;6138454;23;20164;-88
2021/12/19 11:49:38;;;;;;;48.47;11.05;;;0.60;99.90;;;;;;6113891;23;20025;-86
2021/12/19 11:52:41;;;;;;;44.17;10.95;;;0.90;99.90;;;;;;6093987;23;20022;-87
2021/12/19 11:55:39;;;;;;;59.83;10.95;;;0.80;99.90;;;;;;6100510;23;20026;-86
2021/12/19 11:59:11;;;;;;;52.90;9.82;;;0.90;99.90;;;;;;6085247;23;20362;-87
2021/12/19 12:02:29;;;;;;;33.67;10.77;;;0.90;99.90;;;;;;6100007;23;20498;-89
2021/12/19 12:05:20;;;;;;;72.55;12.05;;;0.90;99.90;;;;;;6101317;23;20026;-87
2021/12/19 12:08:11;;;;;;;61.70;14.85;;;0.70;99.90;;;;;;6099568;23;20470;-88
2021/12/19 12:11:03;;;;;;;26.40;11.30;;;0.70;99.90;;;;;;6103168;23;20086;-86
2021/12/19 12:13:52;;;;;;;46.10;13.82;;;0.70;99.90;;;;;;6105172;23;20026;-89
2021/12/19 12:16:54;;;;;;;69.95;11.68;;;0.90;99.90;;;;;;6083664;23;20033;-87
2021/12/19 12:19:49;;;;;;;66.30;12.20;;;1.00;99.90;;;;;;6102114;23;20026;-89
2021/12/19 12:22:56;;;;;;;49.15;12.57;;;1.00;99.90;;;;;;6169342;23;20021;-87
2021/12/19 12:25:51;;;;;;;62.80;11.98;;;1.00;99.90;;;;;;6220968;23;20040;-86
2021/12/19 12:28:42;;;;;;;84.00;12.45;;;1.00;99.90;;;;;;6220463;23;20102;-88
2021/12/19 12:31:33;;;;;;;146.20;13.90;;;0.90;99.90;;;;;;6218051;23;20029;-86
2021/12/19 12:34:21;;;;;;;45.90;10.52;;;0.90;99.90;;;;;;6220043;23;20106;-86
2021/12/19 12:37:12;;;;;;;80.75;11.98;;;0.80;99.90;;;;;;6216076;23;20028;-87
2021/12/19 12:40:31;;;;;;;52.40;10.00;;;0.80;99.90;;;;;;6216946;23;20025;-88
2021/12/19 12:43:23;;;;;;;37.83;12.30;;;0.80;99.90;;;;;;6216482;23;20032;-87
2021/12/19 12:46:24;;;;;;;73.75;11.93;;;0.80;99.90;;;;;;6225274;23;20084;-86
2021/12/19 12:49:28;;;;;;;46.53;11.95;;;0.80;99.90;;;;;;6226407;23;20093;-86
2021/12/19 12:52:32;;;;;;;51.90;10.65;;;1.00;99.90;;;;;;6209191;23;20064;-87
2021/12/19 12:55:22;;;;;;;74.78;11.13;;;1.10;99.90;;;;;;6193579;23;20025;-88
2021/12/19 12:58:27;;;;;;;92.15;11.20;;;0.90;99.90;;;;;;6205662;23;20068;-87
2021/12/19 13:01:36;;;;;;;37.20;10.15;;;0.80;99.90;;;;;;6181330;23;20041;-86
2021/12/19 13:04:33;;;;;;;35.58;11.02;;;0.90;99.90;;;;;;6185103;23;20072;-87
2021/12/19 13:07:42;;;;;;;52.25;9.85;;;1.00;99.90;;;;;;6181396;23;20115;-87
2021/12/19 13:10:39;;;;;;;80.07;12.23;;;1.00;99.90;;;;;;6160985;23;20316;-88
2021/12/19 13:18:33;;;;;;;;;;;;;;;;;;;;;
2021/12/19 13:22:30;;;;;;;;;;;;;;;;;;;;;
2021/12/19 13:29:39;;;;;;;82.38;14.02;;;1.00;99.90;;;;;;5907534;24;20024;-83
2021/12/19 13:36:13;;;;;;;153.73;14.25;;;0.80;99.90;;;;;;6128801;23;20017;-82
2021/12/19 13:39:18;;;;;;;89.43;13.23;;;0.70;99.90;;;;;;6188886;23;20025;-86
2021/12/19 13:42:51;;;;;;;94.30;14.00;;;0.70;99.90;;;;;;6197201;23;20029;-86
2021/12/19 13:59:07;;;;;;;;;;;;;;;;;;;;;
2021/12/19 14:06:17;;;;;;;131.60;15.18;;;0.70;99.90;;;;;;6155192;23;20021;-85
2021/12/19 14:14:12;;;;;;;229.88;21.63;;;0.60;99.90;;;;;;6159621;23;20013;-85
2021/12/19 14:17:22;;;;;;;;;;;;;;;;;;;;;
2021/12/19 14:20:36;;;;;;;298.58;23.20;;;0.40;99.90;;;;;;6113878;23;20152;-85
2021/12/19 14:27:40;;;;;;;117.93;17.45;;;0.40;99.90;;;;;;6216149;23;20028;-86
2021/12/19 14:30:57;;;;;;;161.98;18.13;;;0.40;99.90;;;;;;6131516;23;20030;-86
2021/12/19 14:34:55;;;;;;;63.70;13.32;;;0.40;99.90;;;;;;6134774;23;20014;-85
2021/12/19 14:42:44;;;;;;;;;;;;;;;;;;;;;
2021/12/19 15:01:37;;;;;;;42.90;10.30;;;0.40;99.90;;;;;;6261010;23;20038;-88
2021/12/19 15:05:15;;;;;;;30.55;9.98;;;0.40;99.90;;;;;;6173239;23;20473;-87
2021/12/19 15:08:35;;;;;;;41.35;10.45;;;0.40;99.90;;;;;;6070130;23;20037;-86
2021/12/19 15:11:39;;;;;;;47.42;11.43;;;0.40;99.90;;;;;;6065501;23;20027;-87
2021/12/19 15:14:44;;;;;;;33.83;12.02;;;0.40;99.90;;;;;;6148689;23;20022;-86
2021/12/19 15:17:50;;;;;;;59.95;12.50;;;0.40;99.90;;;;;;6228181;23;20031;-89
2021/12/19 15:29:47;;;;;;;;;;;;;;;;;;;;;
2021/12/19 15:33:01;;;;;;;37.15;13.73;;;0.40;99.90;;;;;;6261432;23;20080;-87
2021/12/19 15:40:37;;;;;;;206.90;19.88;;;0.40;99.90;;;;;;6248819;23;19911;-88
2021/12/19 15:48:26;;;;;;;114.78;19.00;;;0.30;99.90;;;;;;6257176;23;20315;-84
2021/12/19 15:52:18;;;;;;;403.83;30.38;;;0.20;99.90;;;;;;6101631;23;20058;-83
2021/12/19 15:59:45;;;;;;;309.17;30.08;;;0.30;99.90;;;;;;6219477;23;20244;-89
2021/12/19 16:02:58;;;;;;;;;;;;;;;;;;;;;
2021/12/19 16:05:52;;;;;;;273.38;25.52;;;0.30;99.90;;;;;;6219774;23;20063;-87
2021/12/19 16:08:46;;;;;;;;;;;0.30;99.90;;;;;;6205471;23;20060;-87
2021/12/19 16:11:40;;;;;;;169.93;21.87;;;0.20;99.90;;;;;;6216204;23;19928;-86
2021/12/19 16:14:30;;;;;;;207.63;26.30;;;0.30;99.90;;;;;;6194204;23;20259;-87
2021/12/19 16:17:28;;;;;;;114.30;22.70;;;0.20;99.90;;;;;;6196985;23;20047;-87
2021/12/19 16:20:24;;;;;;;92.88;22.02;;;0.20;99.90;;;;;;6199020;23;20119;-87
2021/12/19 16:23:13;;;;;;;94.25;20.98;;;0.20;99.90;;;;;;6197487;23;20024;-88
2021/12/19 16:26:50;;;;;;;89.13;22.50;;;0.30;99.90;;;;;;6198371;23;20027;-87
2021/12/19 16:50:37;;;;;;;;;;;;;;;;;;;;;
2021/12/19 16:53:57;;;;;;;68.20;23.92;;;0.40;99.90;;;;;;6039432;23;20034;-88
2021/12/19 17:09:22;;;;;;;59.55;23.67;;;0.30;99.90;;;;;;6142106;23;20017;-83
2021/12/19 17:12:12;;;;;;;79.50;23.25;;;0.30;99.90;;;;;;6118085;23;20037;-82
2021/12/19 17:15:03;;;;;;;94.78;26.45;;;0.40;99.90;;;;;;6151043;23;20063;-85
2021/12/19 17:17:51;;;;;;;73.57;24.95;;;0.40;99.90;;;;;;6207927;23;20024;-87
2021/12/19 17:20:42;;;;;;;102.32;24.77;;;0.40;99.90;;;;;;6232447;23;20051;-88
2021/12/19 17:23:31;;;;;;;62.58;22.63;;;0.40;99.90;;;;;;6224942;23;20043;-86
2021/12/19 17:26:20;;;;;;;64.00;21.42;;;0.40;99.90;;;;;;6199309;23;20103;-88
2021/12/19 17:29:16;;;;;;;55.45;20.88;;;0.40;99.90;;;;;;6196607;23;20024;-87
2021/12/19 17:32:06;;;;;;;92.57;22.85;;;0.30;99.90;;;;;;6195056;23;20028;-86
2021/12/19 17:34:55;;;;;;;64.60;20.58;;;0.30;99.90;;;;;;6214631;23;20034;-87
2021/12/19 17:37:42;;;;;;;84.05;22.50;;;0.30;99.90;;;;;;6173297;23;20043;-87
2021/12/19 17:43:28;;;;;;;76.68;23.35;;;0.30;99.90;;;;;;6214716;23;20024;-87
2021/12/19 17:46:17;;;;;;;67.18;21.00;;;0.30;99.90;;;;;;6216491;23;20035;-88
2021/12/19 17:49:05;;;;;;;87.13;23.88;;;0.30;99.90;;;;;;6226881;23;20029;-85
2021/12/19 17:51:54;;;;;;;68.15;22.67;;;0.20;99.90;;;;;;6230209;23;20035;-85
2021/12/19 17:54:45;;;;;;;73.20;22.48;;;0.30;99.90;;;;;;6222128;23;20032;-84
2021/12/19 17:57:34;;;;;;;64.43;21.67;;;0.20;99.90;;;;;;6216466;23;20024;-85
2021/12/19 18:00:22;;;;;;;63.22;21.35;;;0.20;99.90;;;;;;6195246;23;20036;-85
2021/12/19 18:03:12;;;;;;;64.95;21.58;;;0.20;99.90;;;;;;6231487;23;20051;-87
2021/12/19 18:06:02;;;;;;;70.45;23.50;;;0.20;99.90;;;;;;6213147;23;20031;-85
2021/12/19 18:08:50;;;;;;;78.78;23.42;;;0.20;99.90;;;;;;6236098;23;20051;-84
2021/12/19 18:11:38;;;;;;;88.30;23.23;;;0.20;99.90;;;;;;6227803;23;20036;-86
2021/12/19 18:14:26;;;;;;;108.57;26.52;;;0.20;99.90;;;;;;6206377;23;20028;-83
2021/12/19 18:17:14;;;;;;;84.47;26.65;;;0.20;99.90;;;;;;6198552;23;20276;-86
2021/12/19 18:20:03;;;;;;;86.18;26.60;;;0.20;99.90;;;;;;6221549;23;20055;-83
2021/12/19 18:22:53;;;;;;;95.05;26.35;;;0.20;99.90;;;;;;6196569;23;20100;-85
2021/12/19 18:25:42;;;;;;;79.55;21.75;;;0.20;99.90;;;;;;6214058;23;20047;-86
2021/12/19 18:28:31;;;;;;;88.25;25.25;;;0.30;99.90;;;;;;6216238;23;20042;-86
2021/12/19 18:31:24;;;;;;;106.55;28.98;;;0.30;99.90;;;;;;6213569;23;20029;-85
2021/12/19 18:34:16;;;;;;;112.03;25.70;;;0.30;99.90;;;;;;6195469;23;20025;-84
2021/12/19 18:37:09;;;;;;;174.88;34.65;;;0.30;99.90;;;;;;6216066;23;20025;-85
2021/12/19 18:40:09;;;;;;;155.60;37.88;;;0.30;99.90;;;;;;6215323;23;20024;-84
2021/12/19 18:43:25;;;;;;;281.17;42.72;;;0.30;99.90;;;;;;6216325;23;20037;-85
2021/12/19 18:46:29;;;;;;;189.18;40.83;;;0.30;99.90;;;;;;6216790;23;20084;-84
2021/12/19 18:52:53;;;;;;;144.35;30.10;;;0.30;99.90;;;;;;6155421;23;20033;-85
2021/12/19 18:55:58;;;;;;;159.45;31.48;;;0.30;99.90;;;;;;6196932;23;20486;-86
2021/12/19 18:58:58;;;;;;;253.07;42.50;;;0.30;99.90;;;;;;6194990;23;20414;-84
2021/12/19 19:01:59;;;;;;;175.63;37.53;;;0.30;99.90;;;;;;6200747;23;20024;-88
2021/12/19 19:04:49;;;;;;;247.73;38.78;;;0.30;99.90;;;;;;6185162;23;20036;-87
2021/12/19 19:07:38;;;;;;;187.20;38.47;;;0.30;99.90;;;;;;6201609;23;20028;-86
2021/12/19 19:10:29;;;;;;;215.43;42.85;;;0.30;99.90;;;;;;6181579;23;20029;-88
2021/12/19 19:13:19;;;;;;;240.82;42.90;;;0.30;99.90;;;;;;6199411;23;20028;-88
2021/12/19 19:16:07;;;;;;;226.15;37.47;;;0.30;99.90;;;;;;6199002;23;20043;-88
2021/12/19 19:18:57;;;;;;;175.55;34.45;;;0.30;99.90;;;;;;6198138;23;20122;-86
2021/12/19 19:21:48;;;;;;;231.65;34.70;;;0.30;99.90;;;;;;6179248;23;20033;-88
2021/12/19 19:24:36;;;;;;;164.65;31.40;;;0.30;99.90;;;;;;6202675;23;20029;-86
2021/12/19 19:27:27;;;;;;;259.30;38.10;;;0.30;99.90;;;;;;6205731;23;20025;-88
2021/12/19 19:30:16;;;;;;;179.75;31.58;;;0.30;99.90;;;;;;6179935;23;20028;-84
2021/12/19 19:33:07;;;;;;;197.07;34.17;;;0.30;99.90;;;;;;6179347;23;20080;-87
2021/12/19 19:35:56;;;;;;;239.00;41.22;;;0.30;99.90;;;;;;6195206;23;20455;-84
2021/12/19 19:48:51;;;;;;;227.00;43.47;;;0.30;99.90;;;;;;6217897;23;20419;-89
2021/12/19 19:51:00;;;;;;;263.83;43.75;;;0.40;99.90;;;;;;6215013;23;20043;-86
2021/12/19 19:53:50;;;;;;;323.70;48.35;;;0.40;99.90;;;;;;6192870;23;20050;-85
2021/12/19 19:56:44;;;;;;;240.13;41.38;;;0.40;99.90;;;;;;6202780;23;20096;-86
2021/12/19 19:59:34;;;;;;;238.93;41.28;;;0.40;99.90;;;;;;6247908;23;20020;-85
2021/12/19 20:02:21;;;;;;;200.82;37.72;;;0.40;99.90;;;;;;6226994;23;20079;-85
2021/12/19 20:05:10;;;;;;;194.45;37.55;;;0.40;99.90;;;;;;6211515;23;20024;-86
2021/12/19 20:07:58;;;;;;;261.42;38.15;;;0.40;99.90;;;;;;6233532;23;20036;-83
2021/12/19 20:10:49;;;;;;;175.43;34.22;;;0.40;99.90;;;;;;6248492;23;20111;-85
2021/12/19 20:13:45;;;;;;;239.07;40.75;;;0.50;99.90;;;;;;6247075;23;20534;-84
2021/12/19 20:16:37;;;;;;;260.98;40.03;;;0.50;99.90;;;;;;6247045;23;20076;-85
2021/12/19 20:19:28;;;;;;;212.02;38.45;;;0.50;99.90;;;;;;6221237;23;20093;-85
2021/12/19 20:22:18;;;;;;;178.13;37.17;;;0.50;99.90;;;;;;6224560;23;20047;-84
2021/12/19 20:25:08;;;;;;;211.32;38.78;;;0.50;99.90;;;;;;6206420;23;20465;-86
2021/12/19 20:27:55;;;;;;;193.48;38.03;;;0.50;99.90;;;;;;6220587;23;20035;-86
2021/12/19 20:30:57;;;;;;;187.30;36.35;;;0.50;99.90;;;;;;6244226;23;20028;-86
2021/12/19 20:33:53;;;;;;;192.68;39.60;;;0.50;99.90;;;;;;6227515;23;20142;-84
2021/12/19 20:36:49;;;;;;;235.85;40.58;;;0.60;99.90;;;;;;6225074;23;20032;-84
2021/12/19 20:39:43;;;;;;;198.13;39.45;;;0.60;99.90;;;;;;6225817;23;20032;-85
2021/12/19 20:43:00;;;;;;;192.00;40.20;;;0.60;99.90;;;;;;6212732;23;20019;-85
2021/12/19 20:45:48;;;;;;;184.30;39.45;;;0.60;99.90;;;;;;6204509;23;20020;-84
2021/12/19 20:48:46;;;;;;;210.13;43.45;;;0.60;99.90;;;;;;6224952;23;20032;-87
2021/12/19 20:51:36;;;;;;;206.93;38.35;;;0.60;99.90;;;;;;6203282;23;20032;-83
2021/12/19 20:54:24;;;;;;;203.60;38.83;;;0.60;99.90;;;;;;6225398;23;20032;-87
2021/12/19 20:57:15;;;;;;;205.85;41.00;;;0.70;99.90;;;;;;6220853;23;20027;-85
2021/12/19 21:00:06;;;;;;;209.45;40.15;;;0.70;99.90;;;;;;6224771;23;20020;-85
2021/12/19 21:02:58;;;;;;;183.02;40.03;;;0.70;99.90;;;;;;6248065;23;20107;-85
2021/12/19 21:05:47;;;;;;;217.40;39.92;;;0.70;99.90;;;;;;6224592;23;20096;-84
2021/12/19 21:08:44;;;;;;;207.90;39.35;;;0.70;99.90;;;;;;6249205;23;20028;-83
2021/12/19 21:11:34;;;;;;;198.85;38.92;;;0.80;99.90;;;;;;6207951;23;20054;-83
2021/12/19 21:14:54;;;;;;;219.73;38.88;;;0.80;99.90;;;;;;6223781;23;20085;-83
2021/12/19 21:20:50;;;;;;;199.70;37.42;;;0.80;99.90;;;;;;6245695;23;20051;-84
2021/12/19 21:23:41;;;;;;;188.50;36.60;;;0.80;99.90;;;;;;6200873;23;20343;-84
2021/12/19 21:26:34;;;;;;;196.23;38.72;;;0.80;99.90;;;;;;6247905;22;20024;-84
2021/12/19 21:29:48;;;;;;;182.63;36.95;;;0.80;99.90;;;;;;6215177;23;20154;-84
2021/12/19 21:32:40;;;;;;;200.73;41.53;;;0.80;99.90;;;;;;6224792;23;20028;-84
2021/12/19 21:41:27;;;;;;;213.45;43.47;;;0.80;99.90;;;;;;6253257;23;20101;-85
2021/12/19 21:44:14;;;;;;;187.30;40.10;;;0.90;99.90;;;;;;6226596;23;20024;-84
2021/12/19 21:47:04;;;;;;;201.10;41.25;;;0.90;99.90;;;;;;6227030;23;20084;-85
2021/12/19 21:49:52;;;;;;;216.02;42.95;;;0.90;99.90;;;;;;6207630;23;20068;-82
2021/12/19 21:52:43;;;;;;;204.50;41.67;;;1.00;99.90;;;;;;6227984;23;20528;-84
2021/12/19 21:55:35;;;;;;;212.52;42.47;;;1.00;99.90;;;;;;6208269;23;20028;-83
2021/12/19 21:58:25;;;;;;;210.10;43.28;;;1.00;99.90;;;;;;6218511;23;20033;-84
2021/12/19 22:01:16;;;;;;;205.18;41.17;;;1.00;99.90;;;;;;6219007;23;20091;-83
2021/12/19 22:04:03;;;;;;;203.98;41.85;;;1.00;99.90;;;;;;6192705;23;20407;-86
2021/12/19 22:06:53;;;;;;;201.25;43.47;;;1.00;99.90;;;;;;6213317;23;20036;-84
2021/12/19 22:09:41;;;;;;;216.60;44.38;;;1.00;99.90;;;;;;6213675;23;20126;-84
2021/12/19 22:12:47;;;;;;;226.98;43.15;;;1.00;99.90;;;;;;6193872;23;20048;-84
2021/12/19 22:15:39;;;;;;;211.82;43.90;;;1.00;99.90;;;;;;6215987;23;20335;-83
2021/12/19 22:18:27;;;;;;;180.65;42.40;;;1.00;99.90;;;;;;6214786;23;20352;-82
2021/12/19 22:21:21;;;;;;;177.75;43.90;;;1.10;99.90;;;;;;6214236;23;20094;-84
2021/12/19 22:24:09;;;;;;;187.73;42.65;;;1.10;99.90;;;;;;6193713;23;20112;-84
2021/12/19 22:27:00;;;;;;;186.27;41.15;;;1.20;99.90;;;;;;6213143;23;20036;-87
2021/12/19 22:29:49;;;;;;;177.27;40.78;;;1.20;99.90;;;;;;6195572;23;20170;-87
2021/12/19 22:32:37;;;;;;;196.35;41.85;;;1.20;99.90;;;;;;6193854;23;20028;-84
2021/12/19 22:35:24;;;;;;;191.48;41.85;;;1.20;99.90;;;;;;6226156;23;20043;-84
2021/12/19 22:38:14;;;;;;;175.27;39.35;;;1.20;99.90;;;;;;6227909;23;20028;-84
2021/12/19 22:41:03;;;;;;;165.45;41.92;;;1.20;99.90;;;;;;6225689;23;20031;-84
2021/12/19 22:43:50;;;;;;;178.80;42.65;;;1.20;99.90;;;;;;6228635;23;20031;-85
2021/12/19 22:46:37;;;;;;;191.55;41.33;;;1.20;99.90;;;;;;6235214;23;20092;-84
2021/12/19 22:49:27;;;;;;;168.98;38.10;;;1.20;99.90;;;;;;6238392;23;20021;-84
2021/12/19 22:52:14;;;;;;;179.95;41.00;;;1.30;99.90;;;;;;6226935;23;20036;-83
2021/12/19 22:55:04;;;;;;;187.18;42.63;;;1.20;99.90;;;;;;6229894;23;20095;-86
2021/12/19 22:57:53;;;;;;;183.77;42.92;;;1.20;99.90;;;;;;6227722;23;20044;-85
2021/12/19 23:00:49;;;;;;;169.45;41.05;;;1.20;99.90;;;;;;6223891;23;20052;-84
2021/12/19 23:03:47;;;;;;;189.43;44.25;;;1.20;99.90;;;;;;6212970;23;20029;-82
2021/12/19 23:06:36;;;;;;;166.77;43.95;;;1.20;99.90;;;;;;6214817;23;20028;-84
2021/12/19 23:09:24;;;;;;;178.48;46.03;;;1.20;99.90;;;;;;6195710;23;20114;-86
2021/12/19 23:12:20;;;;;;;172.15;42.10;;;1.20;99.90;;;;;;6213357;23;20036;-83
2021/12/19 23:15:37;;;;;;;187.38;44.30;;;1.30;99.90;;;;;;6215231;23;20265;-83
2021/12/19 23:18:27;;;;;;;179.93;44.03;;;1.30;99.90;;;;;;6214908;23;20028;-83
2021/12/19 23:21:15;;;;;;;161.18;40.90;;;1.30;99.90;;;;;;6215342;23;20403;-82
2021/12/19 23:24:04;;;;;;;182.10;42.33;;;1.30;99.90;;;;;;6213660;23;20048;-83
2021/12/19 23:26:51;;;;;;;188.82;43.30;;;1.30;99.90;;;;;;6215027;23;20028;-83